createdAt,value
2022-11-22T00:00:10.463Z,61.71
2022-11-22T00:01:09.263Z,61.07
2022-11-22T00:02:09.904Z,62.36
2022-11-22T00:03:09.235Z,62.52
2022-11-22T00:04:09.256Z,62.84
2022-11-22T00:05:09.265Z,62.20
2022-11-22T00:06:09.244Z,62.84
2022-11-22T00:07:09.317Z,65.90
2022-11-22T00:08:09.225Z,62.04
2022-11-22T00:09:09.220Z,63.33
2022-11-22T00:10:10.502Z,61.55
2022-11-22T00:11:09.223Z,67.03
2022-11-22T00:12:09.193Z,65.90
2022-11-22T00:13:09.222Z,60.10
2022-11-22T00:14:09.172Z,61.23
2022-11-22T00:15:09.178Z,62.04
2022-11-22T00:16:09.189Z,68.16
2022-11-22T00:17:09.159Z,63.33
2022-11-22T00:18:09.154Z,63.16
2022-11-22T00:19:09.150Z,63.49
2022-11-22T00:20:09.128Z,64.13
2022-11-22T00:21:09.132Z,67.03
2022-11-22T00:22:09.124Z,61.71
2022-11-22T00:23:09.140Z,63.33
2022-11-22T00:24:10.177Z,61.39
2022-11-22T00:25:09.103Z,60.91
2022-11-22T00:26:09.093Z,59.94
2022-11-22T00:27:09.076Z,61.39
2022-11-22T00:28:09.862Z,61.23
2022-11-22T00:29:09.066Z,62.36
2022-11-22T00:30:09.098Z,61.07
2022-11-22T00:31:09.148Z,63.16
2022-11-22T00:32:09.052Z,61.55
2022-11-22T00:33:09.048Z,61.87
2022-11-22T00:34:09.078Z,63.33
2022-11-22T00:35:09.021Z,61.39
2022-11-22T00:36:09.038Z,61.87
2022-11-22T00:37:09.719Z,62.36
2022-11-22T00:38:09.025Z,61.55
2022-11-22T00:39:09.568Z,62.04
2022-11-22T00:40:08.994Z,64.45
2022-11-22T00:41:08.995Z,60.59
2022-11-22T00:42:08.997Z,63.65
2022-11-22T00:43:08.981Z,61.87
2022-11-22T00:44:08.983Z,61.23
2022-11-22T00:45:08.951Z,59.62
2022-11-22T00:46:08.971Z,59.30
2022-11-22T00:47:09.700Z,62.84
2022-11-22T00:48:08.940Z,58.17
2022-11-22T00:49:08.946Z,54.14
2022-11-22T00:50:08.950Z,53.82
2022-11-22T00:51:08.916Z,53.01
2022-11-22T00:52:08.967Z,58.97
2022-11-22T00:53:08.908Z,59.78
2022-11-22T00:54:08.915Z,59.78
2022-11-22T00:55:09.545Z,59.78
2022-11-22T00:56:08.930Z,60.10
2022-11-22T00:57:08.927Z,59.30
2022-11-22T00:58:08.891Z,58.17
2022-11-22T00:59:08.884Z,58.97
2022-11-22T01:00:08.864Z,66.87
2022-11-22T01:01:09.016Z,61.71
2022-11-22T01:02:08.858Z,59.46
2022-11-22T01:03:08.846Z,59.46
2022-11-22T01:04:08.888Z,62.84
2022-11-22T01:05:08.839Z,70.09
2022-11-22T01:06:08.835Z,61.23
2022-11-22T01:07:08.900Z,58.97
2022-11-22T01:08:08.807Z,61.87
2022-11-22T01:09:08.820Z,62.04
2022-11-22T01:10:08.810Z,61.55
2022-11-22T01:11:08.808Z,64.29
2022-11-22T01:12:09.499Z,67.19
2022-11-22T01:13:08.779Z,63.97
2022-11-22T01:14:08.766Z,65.42
2022-11-22T01:15:08.751Z,62.68
2022-11-22T01:16:08.776Z,62.20
2022-11-22T01:17:08.737Z,62.36
2022-11-22T01:18:08.746Z,60.75
2022-11-22T01:19:08.739Z,61.71
2022-11-22T01:20:08.728Z,62.36
2022-11-22T01:21:08.740Z,61.23
2022-11-22T01:22:08.747Z,67.84
2022-11-22T01:23:08.740Z,62.20
2022-11-22T01:24:09.567Z,62.04
2022-11-22T01:25:08.709Z,62.20
2022-11-22T01:26:08.729Z,62.68
2022-11-22T01:27:09.745Z,62.68
2022-11-22T01:28:08.676Z,62.04
2022-11-22T01:29:08.659Z,62.04
2022-11-22T01:30:08.680Z,63.49
2022-11-22T01:31:08.667Z,61.55
2022-11-22T01:32:08.676Z,62.20
2022-11-22T01:33:08.714Z,62.84
2022-11-22T01:34:08.722Z,63.65
2022-11-22T01:35:10.568Z,63.33
2022-11-22T01:36:08.634Z,60.59
2022-11-22T01:37:08.606Z,61.87
2022-11-22T01:38:08.620Z,60.75
2022-11-22T01:39:08.619Z,62.36
2022-11-22T01:40:08.595Z,61.87
2022-11-22T01:41:09.272Z,62.68
2022-11-22T01:42:09.175Z,60.75
2022-11-22T01:43:08.595Z,59.94
2022-11-22T01:44:08.578Z,61.39
2022-11-22T01:45:08.604Z,60.26
2022-11-22T01:46:08.543Z,61.07
2022-11-22T01:47:08.551Z,60.75
2022-11-22T01:48:08.597Z,60.75
2022-11-22T01:49:08.621Z,59.30
2022-11-22T01:50:08.528Z,58.81
2022-11-22T01:51:08.532Z,60.26
2022-11-22T01:52:09.774Z,60.91
2022-11-22T01:53:08.518Z,60.91
2022-11-22T01:54:08.496Z,59.94
2022-11-22T01:55:08.494Z,59.94
2022-11-22T01:56:08.526Z,57.85
2022-11-22T01:57:10.581Z,58.65
2022-11-22T01:58:08.471Z,64.94
2022-11-22T01:59:08.818Z,58.17
2022-11-22T02:00:08.447Z,59.62
2022-11-22T02:01:08.543Z,61.87
2022-11-22T02:02:08.453Z,61.23
2022-11-22T02:03:08.452Z,59.78
2022-11-22T02:04:08.439Z,60.10
2022-11-22T02:05:08.442Z,60.10
2022-11-22T02:06:09.329Z,57.85
2022-11-22T02:07:08.459Z,54.79
2022-11-22T02:08:08.407Z,58.33
2022-11-22T02:09:08.399Z,56.07
2022-11-22T02:10:08.395Z,58.01
2022-11-22T02:11:08.404Z,57.85
2022-11-22T02:12:08.541Z,58.49
2022-11-22T02:13:08.402Z,58.97
2022-11-22T02:14:08.356Z,59.78
2022-11-22T02:15:08.380Z,58.97
2022-11-22T02:16:08.354Z,59.46
2022-11-22T02:17:10.232Z,58.33
2022-11-22T02:18:08.330Z,60.59
2022-11-22T02:19:08.448Z,58.17
2022-11-22T02:20:08.333Z,55.11
2022-11-22T02:21:08.322Z,56.88
2022-11-22T02:22:08.323Z,59.14
2022-11-22T02:23:08.978Z,59.46
2022-11-22T02:24:08.309Z,60.26
2022-11-22T02:25:08.313Z,73.80
2022-11-22T02:26:08.284Z,61.23
2022-11-22T02:27:08.283Z,61.07
2022-11-22T02:28:08.280Z,58.81
2022-11-22T02:29:08.271Z,58.17
2022-11-22T02:30:08.291Z,57.69
2022-11-22T02:31:08.298Z,55.11
2022-11-22T02:32:08.249Z,54.79
2022-11-22T02:33:08.261Z,54.46
2022-11-22T02:34:09.278Z,55.75
2022-11-22T02:35:08.314Z,55.59
2022-11-22T02:36:08.256Z,57.20
2022-11-22T02:37:08.348Z,57.36
2022-11-22T02:38:08.204Z,57.52
2022-11-22T02:39:08.204Z,56.72
2022-11-22T02:40:08.204Z,57.36
2022-11-22T02:41:08.198Z,58.49
2022-11-22T02:42:08.207Z,58.65
2022-11-22T02:43:08.400Z,57.85
2022-11-22T02:44:08.166Z,58.01
2022-11-22T02:45:08.181Z,56.40
2022-11-22T02:46:08.153Z,57.85
2022-11-22T02:47:08.181Z,55.59
2022-11-22T02:48:08.863Z,55.91
2022-11-22T02:49:08.165Z,58.01
2022-11-22T02:50:08.155Z,58.33
2022-11-22T02:51:08.138Z,58.81
2022-11-22T02:52:08.147Z,59.78
2022-11-22T02:53:08.376Z,59.94
2022-11-22T02:54:08.121Z,58.97
2022-11-22T02:55:08.116Z,56.72
2022-11-22T02:56:08.098Z,56.88
2022-11-22T02:57:08.432Z,59.46
2022-11-22T02:58:08.106Z,57.85
2022-11-22T02:59:08.082Z,67.68
2022-11-22T03:00:09.431Z,66.87
2022-11-22T03:01:08.179Z,60.26
2022-11-22T03:02:08.060Z,60.26
2022-11-22T03:03:08.081Z,57.04
2022-11-22T03:04:08.083Z,58.17
2022-11-22T03:05:15.540Z,59.14
2022-11-22T03:06:08.034Z,59.94
2022-11-22T03:07:08.067Z,59.30
2022-11-22T03:08:08.020Z,61.71
2022-11-22T03:09:08.038Z,62.04
2022-11-22T03:10:29.032Z,60.59
2022-11-22T03:11:07.991Z,58.97
2022-11-22T03:12:08.007Z,58.17
2022-11-22T03:13:07.978Z,58.97
2022-11-22T03:14:07.983Z,61.71
2022-11-22T03:15:07.996Z,61.39
2022-11-22T03:16:09.104Z,63.97
2022-11-22T03:17:07.968Z,59.94
2022-11-22T03:18:07.977Z,60.10
2022-11-22T03:19:07.984Z,59.78
2022-11-22T03:20:07.961Z,59.94
2022-11-22T03:21:08.894Z,59.30
2022-11-22T03:22:07.957Z,60.10
2022-11-22T03:23:07.915Z,67.51
2022-11-22T03:24:07.938Z,65.42
2022-11-22T03:25:07.992Z,61.07
2022-11-22T03:26:07.915Z,59.46
2022-11-22T03:27:07.954Z,60.26
2022-11-22T03:28:07.948Z,59.62
2022-11-22T03:29:07.887Z,60.75
2022-11-22T03:30:07.956Z,58.97
2022-11-22T03:31:07.889Z,60.26
2022-11-22T03:32:08.011Z,60.59
2022-11-22T03:33:07.872Z,62.04
2022-11-22T03:34:07.891Z,61.23
2022-11-22T03:35:07.950Z,59.78
2022-11-22T03:36:07.916Z,62.20
2022-11-22T03:37:07.879Z,60.42
2022-11-22T03:38:07.827Z,59.62
2022-11-22T03:39:07.840Z,59.30
2022-11-22T03:40:08.258Z,60.91
2022-11-22T03:41:07.812Z,61.55
2022-11-22T03:42:07.831Z,62.20
2022-11-22T03:43:07.789Z,61.39
2022-11-22T03:44:07.802Z,60.26
2022-11-22T03:45:07.782Z,60.26
2022-11-22T03:46:07.772Z,60.75
2022-11-22T03:47:07.768Z,61.55
2022-11-22T03:48:07.755Z,63.81
2022-11-22T03:49:07.767Z,61.87
2022-11-22T03:50:07.772Z,61.55
2022-11-22T03:51:09.032Z,59.78
2022-11-22T03:52:07.742Z,61.71
2022-11-22T03:53:07.750Z,59.30
2022-11-22T03:54:07.725Z,61.87
2022-11-22T03:55:07.726Z,62.84
2022-11-22T03:56:10.103Z,62.52
2022-11-22T03:57:07.702Z,61.71
2022-11-22T03:58:07.731Z,62.36
2022-11-22T03:59:07.711Z,62.20
2022-11-22T04:00:07.686Z,61.07
2022-11-22T04:01:11.967Z,62.52
2022-11-22T04:02:08.777Z,62.20
2022-11-22T04:03:07.656Z,61.71
2022-11-22T04:04:08.741Z,61.23
2022-11-22T04:05:07.644Z,61.55
2022-11-22T04:06:07.651Z,60.10
2022-11-22T04:07:07.722Z,61.55
2022-11-22T04:08:07.667Z,60.42
2022-11-22T04:09:07.740Z,61.71
2022-11-22T04:10:07.652Z,62.52
2022-11-22T04:11:07.655Z,68.16
2022-11-22T04:12:07.631Z,62.04
2022-11-22T04:13:07.605Z,61.23
2022-11-22T04:14:07.582Z,60.91
2022-11-22T04:15:07.645Z,62.20
2022-11-22T04:16:07.573Z,60.91
2022-11-22T04:17:08.086Z,59.62
2022-11-22T04:18:07.593Z,61.07
2022-11-22T04:19:07.546Z,61.39
2022-11-22T04:20:07.558Z,61.23
2022-11-22T04:21:07.535Z,62.20
2022-11-22T04:22:07.610Z,61.55
2022-11-22T04:23:07.578Z,60.75
2022-11-22T04:24:07.540Z,61.87
2022-11-22T04:25:07.499Z,61.39
2022-11-22T04:26:07.534Z,60.26
2022-11-22T04:27:07.523Z,60.10
2022-11-22T04:28:07.499Z,62.84
2022-11-22T04:29:10.082Z,60.59
2022-11-22T04:30:07.493Z,63.00
2022-11-22T04:31:07.461Z,62.84
2022-11-22T04:32:07.476Z,64.13
2022-11-22T04:33:08.291Z,67.35
2022-11-22T04:34:08.105Z,62.52
2022-11-22T04:35:07.446Z,60.91
2022-11-22T04:36:13.012Z,59.62
2022-11-22T04:37:08.886Z,61.87
2022-11-22T04:38:08.071Z,64.94
2022-11-22T04:39:07.431Z,60.42
2022-11-22T04:40:07.416Z,61.71
2022-11-22T04:41:07.409Z,65.26
2022-11-22T04:42:07.419Z,61.39
2022-11-22T04:43:07.383Z,61.55
2022-11-22T04:44:07.404Z,59.30
2022-11-22T04:45:07.405Z,60.42
2022-11-22T04:46:07.372Z,60.91
2022-11-22T04:47:07.369Z,60.75
2022-11-22T04:48:07.362Z,70.09
2022-11-22T04:49:07.370Z,63.33
2022-11-22T04:50:09.234Z,60.91
2022-11-22T04:51:07.325Z,60.75
2022-11-22T04:52:07.340Z,61.23
2022-11-22T04:53:07.313Z,58.81
2022-11-22T04:54:07.326Z,58.81
2022-11-22T04:55:07.352Z,58.81
2022-11-22T04:56:07.304Z,71.87
2022-11-22T04:57:07.327Z,68.48
2022-11-22T04:58:07.357Z,66.06
2022-11-22T04:59:09.470Z,60.26
2022-11-22T05:00:07.291Z,59.30
2022-11-22T05:01:07.316Z,60.75
2022-11-22T05:02:08.321Z,58.65
2022-11-22T05:03:07.270Z,59.46
2022-11-22T05:04:07.273Z,59.46
2022-11-22T05:05:07.247Z,59.62
2022-11-22T05:06:07.255Z,62.84
2022-11-22T05:07:07.301Z,62.68
2022-11-22T05:08:07.244Z,61.07
2022-11-22T05:09:08.674Z,58.65
2022-11-22T05:10:07.219Z,59.94
2022-11-22T05:11:07.823Z,59.94
2022-11-22T05:12:07.217Z,60.59
2022-11-22T05:13:07.192Z,58.65
2022-11-22T05:14:07.182Z,58.65
2022-11-22T05:15:07.179Z,60.42
2022-11-22T05:16:07.187Z,58.17
2022-11-22T05:17:10.326Z,59.78
2022-11-22T05:18:08.188Z,58.33
2022-11-22T05:19:07.153Z,60.59
2022-11-22T05:20:07.159Z,66.06
2022-11-22T05:21:07.445Z,68.64
2022-11-22T05:22:07.138Z,59.78
2022-11-22T05:23:07.166Z,58.49
2022-11-22T05:24:07.130Z,58.01
2022-11-22T05:25:07.400Z,58.97
2022-11-22T05:26:07.120Z,59.78
2022-11-22T05:27:07.120Z,58.97
2022-11-22T05:28:07.095Z,63.97
2022-11-22T05:29:07.118Z,59.62
2022-11-22T05:30:07.103Z,58.33
2022-11-22T05:31:07.413Z,63.33
2022-11-22T05:32:07.080Z,58.17
2022-11-22T05:33:07.061Z,58.97
2022-11-22T05:34:07.319Z,58.81
2022-11-22T05:35:07.050Z,59.94
2022-11-22T05:36:07.042Z,67.51
2022-11-22T05:37:07.040Z,60.10
2022-11-22T05:38:07.051Z,60.91
2022-11-22T05:39:07.010Z,58.17
2022-11-22T05:40:07.026Z,58.49
2022-11-22T05:41:06.990Z,58.17
2022-11-22T05:42:06.997Z,57.36
2022-11-22T05:43:07.041Z,58.97
2022-11-22T05:44:06.998Z,58.33
2022-11-22T05:45:07.242Z,57.69
2022-11-22T05:46:06.970Z,57.85
2022-11-22T05:47:14.064Z,58.81
2022-11-22T05:48:06.970Z,56.88
2022-11-22T05:49:06.941Z,57.85
2022-11-22T05:50:06.956Z,57.69
2022-11-22T05:51:06.931Z,56.88
2022-11-22T05:52:06.928Z,65.10
2022-11-22T05:53:07.445Z,68.16
2022-11-22T05:54:06.915Z,56.56
2022-11-22T05:55:06.912Z,55.27
2022-11-22T05:56:06.930Z,57.52
2022-11-22T05:57:06.910Z,57.36
2022-11-22T05:58:06.892Z,57.20
2022-11-22T05:59:06.914Z,58.49
2022-11-22T06:00:06.888Z,59.14
2022-11-22T06:01:07.499Z,70.74
2022-11-22T06:02:06.948Z,71.54
2022-11-22T06:03:06.873Z,58.97
2022-11-22T06:04:06.851Z,60.10
2022-11-22T06:05:06.841Z,57.04
2022-11-22T06:06:07.324Z,57.52
2022-11-22T06:07:10.004Z,57.20
2022-11-22T06:08:06.872Z,57.52
2022-11-22T06:09:06.829Z,54.14
2022-11-22T06:10:06.804Z,56.07
2022-11-22T06:11:06.813Z,55.27
2022-11-22T06:12:06.801Z,55.43
2022-11-22T06:13:07.270Z,66.71
2022-11-22T06:14:07.047Z,57.20
2022-11-22T06:15:27.815Z,63.00
2022-11-22T06:16:06.775Z,57.52
2022-11-22T06:17:06.770Z,56.24
2022-11-22T06:18:06.777Z,55.75
2022-11-22T06:19:06.747Z,62.84
2022-11-22T06:20:06.998Z,54.14
2022-11-22T06:21:06.752Z,56.56
2022-11-22T06:22:06.730Z,55.43
2022-11-22T06:23:06.734Z,55.91
2022-11-22T06:24:06.738Z,57.52
2022-11-22T06:25:06.717Z,58.17
2022-11-22T06:26:06.722Z,59.94
2022-11-22T06:27:06.701Z,55.59
2022-11-22T06:28:06.679Z,58.81
2022-11-22T06:29:07.234Z,67.51
2022-11-22T06:30:06.690Z,58.01
2022-11-22T06:31:06.700Z,57.04
2022-11-22T06:32:06.667Z,55.91
2022-11-22T06:33:06.671Z,54.95
2022-11-22T06:34:08.930Z,54.79
2022-11-22T06:35:06.655Z,68.48
2022-11-22T06:36:06.645Z,64.94
2022-11-22T06:37:06.628Z,67.51
2022-11-22T06:38:06.630Z,58.01
2022-11-22T06:39:06.635Z,55.27
2022-11-22T06:40:06.603Z,56.07
2022-11-22T06:41:06.616Z,54.95
2022-11-22T06:42:06.588Z,54.62
2022-11-22T06:43:06.610Z,54.46
2022-11-22T06:44:07.383Z,53.66
2022-11-22T06:45:06.584Z,55.11
2022-11-22T06:46:06.568Z,55.59
2022-11-22T06:47:06.601Z,54.95
2022-11-22T06:48:06.571Z,54.14
2022-11-22T06:49:06.552Z,54.30
2022-11-22T06:50:06.740Z,55.11
2022-11-22T06:51:06.544Z,55.59
2022-11-22T06:52:06.521Z,56.88
2022-11-22T06:53:06.546Z,57.52
2022-11-22T06:54:06.522Z,56.40
2022-11-22T06:55:08.238Z,56.40
2022-11-22T06:56:06.509Z,56.24
2022-11-22T06:57:07.767Z,68.64
2022-11-22T06:58:06.496Z,54.14
2022-11-22T06:59:06.505Z,55.75
2022-11-22T07:00:06.490Z,55.43
2022-11-22T07:01:06.565Z,57.04
2022-11-22T07:02:07.088Z,56.07
2022-11-22T07:03:06.496Z,56.72
2022-11-22T07:04:06.450Z,57.04
2022-11-22T07:05:31.667Z,54.46
2022-11-22T07:06:07.436Z,56.72
2022-11-22T07:07:07.931Z,54.62
2022-11-22T07:08:13.289Z,54.79
2022-11-22T07:09:07.427Z,57.69
2022-11-22T07:10:06.405Z,55.43
2022-11-22T07:11:06.417Z,56.40
2022-11-22T07:12:06.401Z,56.40
2022-11-22T07:13:06.395Z,55.91
2022-11-22T07:14:08.919Z,57.85
2022-11-22T07:15:06.380Z,64.94
2022-11-22T07:16:07.076Z,57.69
2022-11-22T07:17:06.380Z,56.72
2022-11-22T07:18:06.362Z,57.20
2022-11-22T07:19:06.410Z,60.42
2022-11-22T07:20:06.503Z,57.85
2022-11-22T07:21:12.159Z,59.30
2022-11-22T07:22:07.321Z,55.59
2022-11-22T07:23:06.372Z,61.07
2022-11-22T07:24:06.323Z,60.59
2022-11-22T07:25:06.314Z,57.85
2022-11-22T07:26:06.299Z,68.64
2022-11-22T07:27:06.307Z,70.58
2022-11-22T07:28:06.281Z,68.96
2022-11-22T07:29:06.296Z,68.80
2022-11-22T07:30:06.278Z,68.64
2022-11-22T07:31:06.279Z,68.64
2022-11-22T07:32:06.271Z,72.51
2022-11-22T07:33:06.262Z,73.32
2022-11-22T07:34:06.245Z,76.86
2022-11-22T07:35:06.288Z,69.77
2022-11-22T07:36:06.243Z,74.77
2022-11-22T07:37:09.245Z,68.80
2022-11-22T07:38:06.227Z,71.06
2022-11-22T07:39:06.220Z,60.59
2022-11-22T07:40:06.216Z,58.49
2022-11-22T07:41:06.216Z,56.56
2022-11-22T07:42:06.646Z,55.43
2022-11-22T07:43:06.219Z,56.07
2022-11-22T07:44:06.232Z,81.53
2022-11-22T07:45:06.184Z,77.99
2022-11-22T07:46:06.177Z,62.20
2022-11-22T07:47:06.201Z,61.23
2022-11-22T07:48:06.152Z,75.73
2022-11-22T07:49:06.161Z,62.68
2022-11-22T07:50:06.165Z,60.42
2022-11-22T07:51:06.175Z,56.07
2022-11-22T07:52:06.121Z,55.59
2022-11-22T07:53:06.232Z,56.07
2022-11-22T07:54:06.109Z,64.45
2022-11-22T07:55:10.999Z,59.94
2022-11-22T07:56:07.112Z,65.26
2022-11-22T07:57:06.804Z,56.72
2022-11-22T07:58:06.086Z,56.72
2022-11-22T07:59:06.078Z,68.80
2022-11-22T08:00:06.104Z,64.29
2022-11-22T08:01:06.205Z,67.68
2022-11-22T08:02:07.306Z,69.61
2022-11-22T08:03:06.163Z,81.69
2022-11-22T08:04:06.044Z,69.13
2022-11-22T08:05:06.039Z,80.24
2022-11-22T08:06:06.033Z,79.44
2022-11-22T08:07:06.235Z,78.79
2022-11-22T08:08:06.706Z,70.09
2022-11-22T08:09:06.030Z,65.10
2022-11-22T08:10:05.999Z,69.61
2022-11-22T08:11:06.866Z,73.32
2022-11-22T08:12:05.989Z,76.70
2022-11-22T08:13:05.988Z,71.22
2022-11-22T08:14:06.000Z,74.28
2022-11-22T08:15:05.976Z,66.87
2022-11-22T08:16:06.298Z,77.50
2022-11-22T08:17:05.981Z,71.70
2022-11-22T08:18:05.943Z,75.25
2022-11-22T08:19:05.973Z,67.51
2022-11-22T08:20:05.947Z,74.60
2022-11-22T08:21:05.945Z,67.19
2022-11-22T08:22:05.922Z,66.23
2022-11-22T08:23:06.052Z,62.36
2022-11-22T08:24:05.930Z,71.70
2022-11-22T08:25:05.918Z,77.67
2022-11-22T08:26:05.922Z,71.06
2022-11-22T08:27:05.899Z,72.83
2022-11-22T08:28:05.883Z,68.16
2022-11-22T08:29:13.707Z,74.44
2022-11-22T08:30:06.875Z,69.29
2022-11-22T08:31:05.905Z,69.77
2022-11-22T08:32:05.865Z,67.19
2022-11-22T08:33:05.863Z,66.55
2022-11-22T08:34:05.849Z,69.77
2022-11-22T08:35:05.847Z,72.35
2022-11-22T08:36:05.830Z,72.03
2022-11-22T08:37:05.891Z,73.15
2022-11-22T08:38:05.827Z,66.71
2022-11-22T08:39:05.942Z,77.18
2022-11-22T08:40:05.821Z,75.41
2022-11-22T08:41:05.826Z,69.93
2022-11-22T08:42:05.804Z,67.68
2022-11-22T08:43:05.812Z,69.61
2022-11-22T08:44:05.834Z,72.03
2022-11-22T08:45:05.795Z,72.51
2022-11-22T08:46:05.773Z,72.35
2022-11-22T08:47:05.775Z,72.83
2022-11-22T08:48:05.772Z,63.16
2022-11-22T08:49:05.750Z,70.25
2022-11-22T08:50:06.565Z,68.48
2022-11-22T08:51:05.754Z,68.48
2022-11-22T08:52:05.766Z,69.29
2022-11-22T08:53:05.733Z,68.16
2022-11-22T08:54:05.729Z,69.13
2022-11-22T08:55:05.836Z,70.09
2022-11-22T08:56:05.706Z,74.12
2022-11-22T08:57:06.595Z,75.41
2022-11-22T08:58:05.692Z,75.73
2022-11-22T08:59:05.708Z,73.64
2022-11-22T09:00:05.697Z,70.74
2022-11-22T09:01:05.692Z,74.44
2022-11-22T09:02:05.681Z,80.73
2022-11-22T09:03:05.658Z,81.69
2022-11-22T09:04:05.688Z,69.77
2022-11-22T09:05:05.654Z,71.70
2022-11-22T09:08:22.988Z,69.13
2022-11-22T09:10:06.601Z,70.25
2022-11-22T09:11:05.732Z,68.48
2022-11-22T09:12:05.614Z,77.67
2022-11-22T09:13:05.595Z,75.25
2022-11-22T09:14:05.592Z,76.22
2022-11-22T09:15:05.575Z,69.29
2022-11-22T09:16:05.587Z,72.19
2022-11-22T09:17:05.941Z,68.80
2022-11-22T09:18:05.570Z,70.90
2022-11-22T09:19:05.557Z,68.32
2022-11-22T09:20:05.745Z,68.00
2022-11-22T09:21:05.548Z,68.80
2022-11-22T09:22:05.537Z,63.81
2022-11-22T09:23:05.523Z,62.36
2022-11-22T09:24:05.530Z,61.23
2022-11-22T09:25:05.519Z,60.42
2022-11-22T09:26:06.446Z,61.55
2022-11-22T09:27:05.616Z,59.46
2022-11-22T09:28:05.507Z,60.75
2022-11-22T09:29:05.489Z,63.16
2022-11-22T09:30:05.499Z,72.67
2022-11-22T09:31:26.484Z,87.66
2022-11-22T09:32:05.477Z,76.05
2022-11-22T09:33:05.468Z,70.42
2022-11-22T09:34:05.463Z,74.28
2022-11-22T09:35:05.449Z,73.96
2022-11-22T09:36:05.458Z,70.25
2022-11-22T09:37:05.644Z,71.22
2022-11-22T09:38:05.465Z,68.80
2022-11-22T09:39:05.850Z,71.22
2022-11-22T09:40:05.468Z,67.84
2022-11-22T09:41:05.414Z,69.77
2022-11-22T09:42:05.443Z,65.58
2022-11-22T09:43:05.527Z,69.29
2022-11-22T09:44:07.109Z,79.60
2022-11-22T09:45:05.404Z,80.57
2022-11-22T09:46:05.388Z,83.47
2022-11-22T09:47:05.377Z,82.02
2022-11-22T09:48:09.547Z,80.57
2022-11-22T09:49:05.358Z,82.50
2022-11-22T09:50:05.376Z,85.56
2022-11-22T09:51:05.350Z,80.24
2022-11-22T09:52:05.348Z,74.60
2022-11-22T09:53:05.337Z,84.92
2022-11-22T09:54:05.332Z,77.83
2022-11-22T09:55:05.484Z,69.45
2022-11-22T09:56:05.324Z,66.06
2022-11-22T09:57:05.316Z,64.45
2022-11-22T09:58:05.877Z,58.49
2022-11-22T09:59:05.409Z,60.91
2022-11-22T10:00:05.303Z,66.23
2022-11-22T10:01:05.346Z,59.46
2022-11-22T10:02:17.439Z,63.97
2022-11-22T10:03:06.266Z,59.46
2022-11-22T10:04:05.492Z,62.04
2022-11-22T10:05:05.262Z,60.10
2022-11-22T10:06:05.255Z,64.45
2022-11-22T10:07:05.450Z,65.58
2022-11-22T10:08:05.266Z,61.23
2022-11-22T10:09:05.221Z,61.07
2022-11-22T10:10:05.679Z,60.42
2022-11-22T10:11:05.211Z,59.94
2022-11-22T10:12:05.213Z,58.49
2022-11-22T10:13:05.202Z,58.49
2022-11-22T10:14:05.199Z,60.91
2022-11-22T10:15:05.840Z,62.36
2022-11-22T10:16:05.175Z,57.69
2022-11-22T10:17:05.213Z,63.81
2022-11-22T10:18:05.191Z,61.07
2022-11-22T10:19:06.733Z,57.85
2022-11-22T10:20:05.199Z,59.94
2022-11-22T10:21:05.161Z,60.91
2022-11-22T10:22:05.136Z,59.94
2022-11-22T10:23:05.141Z,59.30
2022-11-22T10:24:05.152Z,57.85
2022-11-22T10:25:05.792Z,60.91
2022-11-22T10:26:05.103Z,57.20
2022-11-22T10:27:05.105Z,62.52
2022-11-22T10:28:05.095Z,63.33
2022-11-22T10:29:05.100Z,62.84
2022-11-22T10:30:05.462Z,67.84
2022-11-22T10:31:05.205Z,60.91
2022-11-22T10:32:05.070Z,59.62
2022-11-22T10:33:05.066Z,56.56
2022-11-22T10:34:05.057Z,55.27
2022-11-22T10:35:06.149Z,57.20
2022-11-22T10:36:05.667Z,64.94
2022-11-22T10:37:05.045Z,62.20
2022-11-22T10:38:05.021Z,62.20
2022-11-22T10:39:05.114Z,66.23
2022-11-22T10:40:05.364Z,60.75
2022-11-22T10:41:05.943Z,59.46
2022-11-22T10:42:07.183Z,58.81
2022-11-22T10:43:05.005Z,57.69
2022-11-22T10:44:04.985Z,58.33
2022-11-22T10:45:05.639Z,56.56
2022-11-22T10:46:04.980Z,58.17
2022-11-22T10:47:05.107Z,61.87
2022-11-22T10:48:04.956Z,63.33
2022-11-22T10:49:04.968Z,58.81
2022-11-22T10:50:04.942Z,55.59
2022-11-22T10:51:04.947Z,58.97
2022-11-22T10:52:04.982Z,62.20
2022-11-22T10:53:04.927Z,73.48
2022-11-22T10:54:04.918Z,72.83
2022-11-22T10:55:04.942Z,60.10
2022-11-22T10:56:05.635Z,60.91
2022-11-22T10:57:04.888Z,70.25
2022-11-22T10:58:04.897Z,64.94
2022-11-22T10:59:04.882Z,63.97
2022-11-22T11:00:04.874Z,63.81
2022-11-22T11:01:05.658Z,59.94
2022-11-22T11:02:04.852Z,63.49
2022-11-22T11:03:04.979Z,65.42
2022-11-22T11:04:05.603Z,62.52
2022-11-22T11:05:04.843Z,75.57
2022-11-22T11:06:22.725Z,62.52
2022-11-22T11:07:14.430Z,63.33
2022-11-22T11:08:36.763Z,62.68
2022-11-22T11:10:02.745Z,76.38
2022-11-22T11:10:11.782Z,67.51
2022-11-22T11:11:05.797Z,79.60
2022-11-22T11:12:06.757Z,73.80
2022-11-22T11:13:04.785Z,72.83
2022-11-22T11:14:04.773Z,75.89
2022-11-22T11:15:04.778Z,75.57
2022-11-22T11:16:04.844Z,74.12
2022-11-22T11:17:04.782Z,76.38
2022-11-22T11:18:04.777Z,76.22
2022-11-22T11:19:04.866Z,74.60
2022-11-22T11:20:04.730Z,76.70
2022-11-22T11:21:04.814Z,76.70
2022-11-22T11:22:04.733Z,73.80
2022-11-22T11:23:20.455Z,75.25
2022-11-22T11:24:05.691Z,74.77
2022-11-22T11:25:04.702Z,71.70
2022-11-22T11:26:04.676Z,73.32
2022-11-22T11:27:05.597Z,70.25
2022-11-22T11:28:04.683Z,76.05
2022-11-22T11:29:05.263Z,74.93
2022-11-22T11:30:04.657Z,70.09
2022-11-22T11:31:04.680Z,75.73
2022-11-22T11:32:04.642Z,64.94
2022-11-22T11:33:04.638Z,67.68
2022-11-22T11:34:04.649Z,70.09
2022-11-22T11:35:04.758Z,68.00
2022-11-22T11:36:04.616Z,74.93
2022-11-22T11:37:04.621Z,73.32
2022-11-22T11:38:04.600Z,72.99
2022-11-22T11:39:04.617Z,73.96
2022-11-22T11:40:04.592Z,69.77
2022-11-22T11:41:04.585Z,68.80
2022-11-22T11:42:04.581Z,68.00
2022-11-22T11:43:04.578Z,65.10
2022-11-22T11:44:05.712Z,73.48
2022-11-22T11:45:04.568Z,81.53
2022-11-22T11:46:04.539Z,71.87
2022-11-22T11:47:04.552Z,73.96
2022-11-22T11:48:12.641Z,76.54
2022-11-22T11:49:04.529Z,75.57
2022-11-22T11:50:04.862Z,70.74
2022-11-22T11:51:04.638Z,60.91
2022-11-22T11:52:04.580Z,68.32
2022-11-22T11:53:04.495Z,77.18
2022-11-22T11:54:04.505Z,73.48
2022-11-22T11:55:04.492Z,69.93
2022-11-22T11:56:04.527Z,76.70
2022-11-22T11:57:05.549Z,65.10
2022-11-22T11:58:04.483Z,63.49
2022-11-22T11:59:04.472Z,63.49
2022-11-22T12:00:04.467Z,62.52
2022-11-22T12:01:04.520Z,61.39
2022-11-22T12:02:05.180Z,67.68
2022-11-22T12:03:04.446Z,60.91
2022-11-22T12:04:04.468Z,61.23
2022-11-22T12:05:04.485Z,61.87
2022-11-22T12:06:04.546Z,65.74
2022-11-22T12:07:04.743Z,71.70
2022-11-22T12:08:04.667Z,73.80
2022-11-22T12:09:04.409Z,74.12
2022-11-22T12:10:04.395Z,74.77
2022-11-22T12:11:04.409Z,77.50
2022-11-22T12:12:04.485Z,79.44
2022-11-22T12:13:05.020Z,75.41
2022-11-22T12:14:20.629Z,64.13
2022-11-22T12:15:13.041Z,73.80
2022-11-22T12:16:05.352Z,70.42
2022-11-22T12:17:04.350Z,74.12
2022-11-22T12:18:04.369Z,73.48
2022-11-22T12:19:04.347Z,69.45
2022-11-22T12:20:04.333Z,73.48
2022-11-22T12:21:04.310Z,68.16
2022-11-22T12:22:04.359Z,77.02
2022-11-22T12:23:04.422Z,71.87
2022-11-22T12:24:34.409Z,82.50
2022-11-22T12:25:30.887Z,64.45
2022-11-22T12:26:05.283Z,69.29
2022-11-22T12:27:04.297Z,78.31
2022-11-22T12:28:04.276Z,76.38
2022-11-22T12:29:06.980Z,78.15
2022-11-22T12:30:04.356Z,75.25
2022-11-22T12:31:04.248Z,76.70
2022-11-22T12:32:04.245Z,70.25
2022-11-22T12:33:04.230Z,75.57
2022-11-22T12:34:04.234Z,70.90
2022-11-22T12:35:04.224Z,67.68
2022-11-22T12:36:04.244Z,61.71
2022-11-22T12:37:04.207Z,71.54
2022-11-22T12:38:25.324Z,73.96
2022-11-22T12:39:04.253Z,67.03
2022-11-22T12:40:04.204Z,76.05
2022-11-22T12:41:04.225Z,80.57
2022-11-22T12:42:05.053Z,74.12
2022-11-22T12:43:04.329Z,71.06
2022-11-22T12:44:04.168Z,73.64
2022-11-22T12:45:04.199Z,66.87
2022-11-22T12:46:04.161Z,65.74
2022-11-22T12:47:04.436Z,71.38
2022-11-22T12:48:05.455Z,74.12
2022-11-22T12:49:04.127Z,69.13
2022-11-22T12:50:04.136Z,75.73
2022-11-22T12:51:04.164Z,71.22
2022-11-22T12:52:04.130Z,73.80
2022-11-22T12:53:04.171Z,70.42
2022-11-22T12:54:04.302Z,77.67
2022-11-22T12:55:04.122Z,73.32